createdAt,value
2018-06-30T00:04:51.568Z,99.90
2018-06-30T00:07:20.968Z,99.90
2018-06-30T00:09:49.242Z,99.90
2018-06-30T00:12:17.587Z,99.90
2018-06-30T00:14:45.892Z,99.90
2018-06-30T00:17:14.326Z,99.90
2018-06-30T00:19:42.595Z,99.90
2018-06-30T00:22:10.878Z,99.90
2018-06-30T00:24:39.136Z,99.90
2018-06-30T00:27:12.832Z,99.90
2018-06-30T00:29:41.112Z,99.90
2018-06-30T00:32:09.374Z,99.90
2018-06-30T00:34:37.668Z,99.90
2018-06-30T00:37:05.956Z,99.90
2018-06-30T00:39:34.216Z,99.90
2018-06-30T00:42:02.505Z,99.90
2018-06-30T00:44:30.786Z,99.90
2018-06-30T00:46:59.062Z,99.90
2018-06-30T00:49:27.356Z,99.90
2018-06-30T00:51:55.614Z,99.90
2018-06-30T00:54:23.886Z,99.90
2018-06-30T00:56:52.148Z,99.90
2018-06-30T00:59:20.415Z,99.90
2018-06-30T01:01:48.680Z,99.90
2018-06-30T01:04:16.948Z,99.90
2018-06-30T01:06:45.236Z,99.90
2018-06-30T01:09:13.530Z,99.90
2018-06-30T01:11:41.813Z,99.90
2018-06-30T01:14:10.087Z,99.90
2018-06-30T01:16:38.488Z,99.90
2018-06-30T01:19:06.762Z,99.90
2018-06-30T01:21:35.040Z,99.90
2018-06-30T01:24:03.342Z,99.90
2018-06-30T01:26:31.604Z,99.90
2018-06-30T01:28:59.976Z,99.90
2018-06-30T01:31:28.274Z,99.90
2018-06-30T01:33:56.544Z,99.90
2018-06-30T01:36:24.878Z,99.90
2018-06-30T01:38:53.152Z,99.90
2018-06-30T01:41:21.410Z,99.90
2018-06-30T01:43:49.693Z,99.90
2018-06-30T01:46:18.068Z,99.90
2018-06-30T01:48:46.396Z,99.90
2018-06-30T01:51:14.686Z,99.90
2018-06-30T01:53:42.997Z,99.90
2018-06-30T01:56:11.272Z,99.90
2018-06-30T01:58:39.535Z,99.90
2018-06-30T02:03:35.945Z,99.90
2018-06-30T02:06:04.592Z,99.90
2018-06-30T02:08:32.872Z,99.90
2018-06-30T02:11:01.152Z,99.90
2018-06-30T02:13:29.605Z,99.90
2018-06-30T02:15:57.873Z,99.90
2018-06-30T02:18:26.130Z,99.90
2018-06-30T02:20:54.410Z,99.90
2018-06-30T02:23:22.662Z,99.90
2018-06-30T02:25:50.994Z,99.90
2018-06-30T02:28:19.243Z,99.90
2018-06-30T02:30:47.517Z,99.90
2018-06-30T02:35:44.041Z,99.90
2018-06-30T02:38:12.431Z,99.90
2018-06-30T02:40:40.691Z,99.90
2018-06-30T02:43:08.953Z,99.90
2018-06-30T02:45:37.292Z,99.90
2018-06-30T02:48:05.583Z,99.90
2018-06-30T02:50:34.013Z,99.90
2018-06-30T02:53:02.306Z,99.90
2018-06-30T02:55:30.849Z,99.90
2018-06-30T02:57:59.127Z,99.90
2018-06-30T03:00:27.409Z,99.90
2018-06-30T03:02:55.695Z,99.90
2018-06-30T03:05:23.985Z,99.90
2018-06-30T03:10:20.277Z,99.90
2018-06-30T03:12:48.561Z,99.90
2018-06-30T03:15:16.831Z,99.90
2018-06-30T03:17:45.101Z,99.90
2018-06-30T03:20:13.397Z,99.90
2018-06-30T03:22:41.752Z,99.90
2018-06-30T03:27:38.097Z,99.90
2018-06-30T03:30:06.355Z,99.90
2018-06-30T03:32:34.655Z,99.90
2018-06-30T03:35:03.038Z,99.90
2018-06-30T03:37:31.327Z,99.90
2018-06-30T03:39:59.575Z,99.90
2018-06-30T03:42:27.860Z,99.90
2018-06-30T03:44:56.137Z,99.90
2018-06-30T03:47:24.400Z,99.90
2018-06-30T03:49:52.695Z,99.90
2018-06-30T03:52:21.001Z,99.90
2018-06-30T03:54:49.277Z,99.90
2018-06-30T03:57:17.549Z,99.90
2018-06-30T03:59:45.821Z,99.90
2018-06-30T04:02:14.125Z,99.90
2018-06-30T04:04:42.373Z,99.90
2018-06-30T04:07:10.655Z,99.90
2018-06-30T04:09:38.931Z,99.90
2018-06-30T04:12:07.199Z,99.90
2018-06-30T04:14:35.477Z,99.90
2018-06-30T04:17:03.821Z,99.90
2018-06-30T04:19:32.082Z,99.90
2018-06-30T04:22:00.382Z,99.90
2018-06-30T04:24:28.675Z,99.90
2018-06-30T04:26:57.035Z,99.90
2018-06-30T04:29:25.349Z,99.90
2018-06-30T04:31:53.633Z,99.90
2018-06-30T04:34:21.900Z,99.90
2018-06-30T04:36:50.197Z,99.90
2018-06-30T04:39:18.511Z,99.90
2018-06-30T04:41:46.779Z,99.90
2018-06-30T04:46:43.068Z,99.90
2018-06-30T04:49:11.337Z,99.90
2018-06-30T04:51:39.653Z,99.90
2018-06-30T04:54:07.958Z,99.90
2018-06-30T04:56:36.235Z,99.90
2018-06-30T04:59:04.580Z,99.90
2018-06-30T05:01:32.838Z,99.90
2018-06-30T05:04:01.169Z,99.90
2018-06-30T05:06:29.437Z,99.90
2018-06-30T05:08:57.695Z,99.90
2018-06-30T05:11:25.995Z,99.90
2018-06-30T05:13:54.264Z,99.90
2018-06-30T05:16:22.546Z,99.90
2018-06-30T05:18:50.811Z,99.90
2018-06-30T05:21:19.109Z,99.90
2018-06-30T05:23:47.381Z,99.90
2018-06-30T05:26:15.657Z,99.90
2018-06-30T05:28:43.947Z,99.90
2018-06-30T05:31:12.229Z,99.90
2018-06-30T05:33:40.672Z,99.90
2018-06-30T05:36:08.917Z,99.90
2018-06-30T05:38:37.211Z,99.90
2018-06-30T05:41:05.570Z,99.90
2018-06-30T05:43:33.803Z,99.90
2018-06-30T05:46:02.096Z,99.90
2018-06-30T05:48:30.393Z,99.90
2018-06-30T05:50:58.694Z,99.90
2018-06-30T05:53:26.983Z,99.90
2018-06-30T05:55:55.265Z,99.90
2018-06-30T05:58:23.548Z,99.90
2018-06-30T06:00:51.813Z,99.90
2018-06-30T06:03:20.072Z,99.90
2018-06-30T06:05:48.453Z,99.90
2018-06-30T06:08:16.793Z,99.90
2018-06-30T06:10:45.079Z,99.90
2018-06-30T06:13:13.356Z,99.90
2018-06-30T06:15:41.634Z,99.90
2018-06-30T06:18:10.070Z,99.90
2018-06-30T06:20:38.327Z,99.90
2018-06-30T06:23:06.868Z,99.90
2018-06-30T06:25:35.178Z,99.90
2018-06-30T06:28:03.461Z,99.90
2018-06-30T06:30:31.792Z,99.90
2018-06-30T06:33:00.172Z,99.90
2018-06-30T06:35:28.432Z,99.90
2018-06-30T06:37:56.704Z,99.90
2018-06-30T06:40:24.971Z,99.90
2018-06-30T06:42:53.260Z,99.90
2018-06-30T06:45:21.516Z,99.90
2018-06-30T06:47:49.791Z,99.90
2018-06-30T06:52:46.187Z,99.90
2018-06-30T06:55:14.596Z,99.90
2018-06-30T06:57:42.909Z,99.90
2018-06-30T07:00:11.195Z,99.90
2018-06-30T07:02:39.472Z,99.90
2018-06-30T07:05:07.767Z,99.90
2018-06-30T07:10:04.263Z,99.90
2018-06-30T07:12:32.521Z,99.90
2018-06-30T07:15:00.970Z,98.10
2018-06-30T07:17:29.294Z,97.40
2018-06-30T07:19:57.601Z,96.50
2018-06-30T07:22:25.897Z,96.40
2018-06-30T07:24:56.206Z,96.10
2018-06-30T07:27:24.497Z,95.50
2018-06-30T07:29:52.761Z,95.00
2018-06-30T07:32:21.063Z,93.00
2018-06-30T07:34:49.341Z,91.20
2018-06-30T07:37:17.658Z,89.80
2018-06-30T07:39:45.901Z,88.10
2018-06-30T07:42:14.154Z,88.70
2018-06-30T07:44:42.498Z,88.80
2018-06-30T07:47:10.759Z,87.80
2018-06-30T07:49:39.032Z,89.40
2018-06-30T07:52:07.373Z,89.70
2018-06-30T07:54:35.637Z,90.20
2018-06-30T07:57:03.938Z,90.40
2018-06-30T07:59:32.199Z,90.30
2018-06-30T08:02:00.528Z,91.40
2018-06-30T08:04:28.820Z,91.70
2018-06-30T08:06:57.112Z,90.50
2018-06-30T08:09:25.402Z,90.40
2018-06-30T08:11:53.677Z,91.20
2018-06-30T08:14:22.000Z,91.50
2018-06-30T08:16:50.296Z,92.20
2018-06-30T08:19:18.821Z,90.40
2018-06-30T08:21:47.077Z,91.10
2018-06-30T08:24:15.340Z,91.50
2018-06-30T08:26:43.645Z,91.90
2018-06-30T08:29:11.921Z,90.90
2018-06-30T08:31:40.216Z,91.10
2018-06-30T08:34:08.511Z,90.70
2018-06-30T08:36:36.807Z,91.10
2018-06-30T08:39:08.261Z,91.20
2018-06-30T08:41:36.535Z,91.00
2018-06-30T08:44:05.295Z,91.20
2018-06-30T08:46:33.589Z,90.50
2018-06-30T08:49:01.939Z,87.70
2018-06-30T08:51:30.376Z,86.70
2018-06-30T08:53:58.716Z,86.50
2018-06-30T08:56:27.095Z,85.30
2018-06-30T08:58:55.434Z,87.80
2018-06-30T09:01:24.169Z,84.80
2018-06-30T09:03:52.461Z,85.20
2018-06-30T09:06:20.965Z,82.60
2018-06-30T09:08:49.222Z,82.30
2018-06-30T09:11:17.523Z,79.70
2018-06-30T09:13:45.793Z,80.00
2018-06-30T09:16:14.134Z,81.30
2018-06-30T09:18:42.363Z,80.90
2018-06-30T09:21:10.657Z,78.90
2018-06-30T09:26:06.971Z,75.00
2018-06-30T09:28:35.310Z,75.70
2018-06-30T09:31:03.583Z,76.30
2018-06-30T09:35:59.973Z,76.50
2018-06-30T09:38:28.273Z,75.80
2018-06-30T09:40:56.638Z,75.90
2018-06-30T09:43:24.945Z,73.90
2018-06-30T09:48:21.333Z,75.00
2018-06-30T09:50:50.799Z,74.50
2018-06-30T09:53:19.106Z,75.00
2018-06-30T09:55:48.450Z,72.40
2018-06-30T09:58:16.903Z,73.70
2018-06-30T10:00:55.156Z,75.50
2018-06-30T10:03:25.099Z,70.50
2018-06-30T10:05:53.373Z,71.10
2018-06-30T10:08:21.649Z,65.30
2018-06-30T10:10:49.948Z,66.90
2018-06-30T10:13:18.228Z,66.80
2018-06-30T10:15:46.868Z,68.00
2018-06-30T10:18:16.050Z,70.40
2018-06-30T10:20:45.397Z,68.80
2018-06-30T10:23:13.685Z,71.10
2018-06-30T10:25:41.970Z,71.30
2018-06-30T10:28:10.717Z,69.80
2018-06-30T10:30:40.049Z,71.50
2018-06-30T10:33:08.606Z,67.90
2018-06-30T10:35:36.908Z,69.20
2018-06-30T10:38:05.703Z,65.90
2018-06-30T10:40:34.097Z,68.50
2018-06-30T10:43:02.382Z,65.40
2018-06-30T10:45:30.871Z,66.50
2018-06-30T10:47:59.156Z,66.40
2018-06-30T10:50:28.657Z,68.90
2018-06-30T10:52:56.971Z,64.70
2018-06-30T10:55:25.288Z,62.40
2018-06-30T11:02:49.643Z,61.90
2018-06-30T11:05:18.019Z,62.00
2018-06-30T11:07:46.244Z,60.80
2018-06-30T11:10:14.513Z,59.90
2018-06-30T11:12:42.783Z,59.30
2018-06-30T11:15:11.101Z,62.00
2018-06-30T11:17:39.477Z,60.70
2018-06-30T11:20:07.803Z,58.30
2018-06-30T11:22:36.063Z,59.80
2018-06-30T11:25:04.400Z,59.90
2018-06-30T11:27:32.692Z,58.40
2018-06-30T11:30:00.982Z,59.00
2018-06-30T11:32:29.262Z,57.70
2018-06-30T11:34:57.553Z,57.90
2018-06-30T11:39:53.872Z,57.80
2018-06-30T11:42:22.163Z,58.30
2018-06-30T11:44:50.461Z,57.30
2018-06-30T11:47:18.715Z,57.50
2018-06-30T11:49:46.982Z,56.80
2018-06-30T11:52:15.297Z,57.30
2018-06-30T11:54:43.647Z,58.50
2018-06-30T11:57:11.926Z,57.90
2018-06-30T11:59:40.451Z,59.80
2018-06-30T12:02:09.106Z,59.20
2018-06-30T12:04:37.341Z,60.60
2018-06-30T12:07:06.067Z,59.90
2018-06-30T12:09:34.364Z,58.10
2018-06-30T12:12:02.673Z,56.80
2018-06-30T12:14:31.011Z,55.70
2018-06-30T12:16:59.311Z,53.30
2018-06-30T12:19:27.597Z,55.80
2018-06-30T12:21:55.978Z,55.70
2018-06-30T12:26:52.269Z,56.10
2018-06-30T12:29:20.600Z,57.50
2018-06-30T12:31:48.900Z,56.30
2018-06-30T12:34:17.175Z,55.40
2018-06-30T12:36:45.504Z,56.70
2018-06-30T12:39:13.882Z,57.40
2018-06-30T12:41:42.040Z,56.70
2018-06-30T12:46:38.334Z,53.30
2018-06-30T12:49:06.617Z,54.60
2018-06-30T12:51:34.935Z,51.40
2018-06-30T12:54:03.229Z,51.70
2018-06-30T12:56:31.559Z,53.30
2018-06-30T12:58:59.845Z,51.50
2018-06-30T13:01:28.166Z,52.70
2018-06-30T13:03:56.484Z,51.70
2018-06-30T13:06:24.803Z,53.20
2018-06-30T13:08:53.124Z,52.30
2018-06-30T13:11:21.403Z,52.90
2018-06-30T13:13:49.960Z,55.50
2018-06-30T13:16:18.229Z,54.70
2018-06-30T13:18:46.556Z,55.60
2018-06-30T13:21:14.860Z,54.00
2018-06-30T13:23:43.132Z,54.00
2018-06-30T13:26:11.408Z,54.40
2018-06-30T13:28:39.709Z,56.10
2018-06-30T13:31:08.110Z,54.50
2018-06-30T13:33:36.388Z,55.80
2018-06-30T13:36:04.743Z,53.60
2018-06-30T13:38:33.021Z,55.30
2018-06-30T13:41:01.335Z,55.50
2018-06-30T13:43:29.636Z,53.70
2018-06-30T13:45:57.960Z,55.30
2018-06-30T13:48:26.301Z,56.60
2018-06-30T13:50:54.608Z,54.50
2018-06-30T13:55:50.928Z,55.90
2018-06-30T13:58:19.236Z,56.70
2018-06-30T14:00:47.541Z,56.50
2018-06-30T14:03:15.844Z,54.60
2018-06-30T14:05:44.100Z,54.10
2018-06-30T14:10:41.296Z,56.00
2018-06-30T14:13:09.592Z,57.30
2018-06-30T14:15:37.946Z,55.40
2018-06-30T14:20:34.483Z,54.80
2018-06-30T14:23:02.743Z,54.20
2018-06-30T14:25:31.027Z,53.60
2018-06-30T14:27:59.328Z,55.10
2018-06-30T14:30:27.641Z,55.50
2018-06-30T14:37:52.105Z,53.00
2018-06-30T14:40:21.584Z,55.10
2018-06-30T14:42:49.861Z,55.90
2018-06-30T14:45:18.136Z,53.30
2018-06-30T14:47:46.433Z,54.80
2018-06-30T14:50:14.860Z,53.50
2018-06-30T14:52:43.194Z,53.90
2018-06-30T14:55:11.491Z,53.50
2018-06-30T14:57:39.789Z,52.40
2018-06-30T15:00:08.845Z,53.00
2018-06-30T15:02:37.333Z,53.00
2018-06-30T15:05:06.760Z,53.80
2018-06-30T15:07:35.167Z,53.30
2018-06-30T15:10:03.367Z,52.90
2018-06-30T15:12:31.635Z,52.30
2018-06-30T15:14:59.921Z,52.40
2018-06-30T15:17:28.208Z,54.40
2018-06-30T15:19:56.508Z,54.80
2018-06-30T15:22:24.849Z,53.90
2018-06-30T15:24:53.115Z,53.00
2018-06-30T15:29:49.437Z,54.50
2018-06-30T15:32:17.789Z,54.90
2018-06-30T15:34:46.075Z,54.70
2018-06-30T15:37:14.386Z,54.50
2018-06-30T15:39:42.685Z,54.50
2018-06-30T15:42:10.973Z,53.70
2018-06-30T15:44:39.261Z,54.40
2018-06-30T15:47:07.569Z,54.80
2018-06-30T15:49:35.869Z,54.90
2018-06-30T15:52:04.177Z,53.10
2018-06-30T15:59:28.609Z,55.10
2018-06-30T16:01:56.921Z,54.80
2018-06-30T16:04:25.316Z,54.00
2018-06-30T16:06:53.585Z,54.30
2018-06-30T16:09:21.881Z,54.30
2018-06-30T16:11:50.440Z,54.50
2018-06-30T16:14:18.777Z,54.70
2018-06-30T16:16:47.105Z,54.70
2018-06-30T16:19:15.399Z,55.00
2018-06-30T16:26:39.753Z,53.00
2018-06-30T16:29:08.017Z,53.70
2018-06-30T16:31:36.425Z,53.30
2018-06-30T16:34:04.719Z,52.70
2018-06-30T16:36:33.219Z,53.50
2018-06-30T16:39:01.547Z,53.50
2018-06-30T16:41:29.942Z,54.50
2018-06-30T16:43:58.235Z,54.30
2018-06-30T16:46:26.499Z,53.40
2018-06-30T16:48:54.791Z,53.80
2018-06-30T16:51:23.057Z,53.90
2018-06-30T16:53:51.386Z,53.70
2018-06-30T16:56:19.682Z,54.20
2018-06-30T16:58:47.932Z,53.30
2018-06-30T17:01:16.252Z,53.80
2018-06-30T17:03:44.503Z,52.00
2018-06-30T17:06:12.911Z,52.10
2018-06-30T17:08:41.181Z,51.50
2018-06-30T17:11:09.465Z,50.70
2018-06-30T17:16:05.787Z,47.70
2018-06-30T17:18:34.093Z,46.70
2018-06-30T17:21:02.419Z,47.20
2018-06-30T17:23:30.772Z,47.50
2018-06-30T17:28:27.110Z,47.70
2018-06-30T17:30:55.423Z,47.80
2018-06-30T17:33:23.726Z,48.10
2018-06-30T17:35:52.111Z,47.10
2018-06-30T17:38:20.415Z,45.80
2018-06-30T17:40:48.701Z,46.30
2018-06-30T17:48:13.025Z,46.10
2018-06-30T17:50:41.536Z,46.90
2018-06-30T17:53:10.339Z,47.70
2018-06-30T17:55:38.645Z,46.90
2018-06-30T18:05:31.249Z,48.10
2018-06-30T18:07:59.616Z,48.00
2018-06-30T18:10:28.055Z,48.10
2018-06-30T18:12:56.340Z,48.80
2018-06-30T18:15:24.647Z,49.30
2018-06-30T18:17:52.955Z,50.00
2018-06-30T18:20:21.275Z,50.70
2018-06-30T18:22:49.667Z,51.20
2018-06-30T18:25:17.939Z,51.80
2018-06-30T18:27:46.283Z,52.60
2018-06-30T18:30:14.591Z,53.80
2018-06-30T18:35:13.093Z,54.00
2018-06-30T18:37:41.375Z,54.30
2018-06-30T18:40:09.657Z,55.30
2018-06-30T18:42:38.072Z,56.30
2018-06-30T18:45:06.380Z,56.50
2018-06-30T18:47:34.652Z,57.20
2018-06-30T18:50:03.020Z,58.10
2018-06-30T18:52:31.433Z,58.60
2018-06-30T18:54:59.756Z,58.80
2018-06-30T18:57:28.052Z,59.60
2018-06-30T19:02:24.491Z,60.90
2018-06-30T19:04:52.822Z,60.60
2018-06-30T19:07:21.262Z,60.70
2018-06-30T19:09:49.648Z,60.90
2018-06-30T19:12:17.923Z,61.90
2018-06-30T19:14:46.210Z,62.50
2018-06-30T19:17:14.532Z,62.80
2018-06-30T19:19:42.828Z,63.90
2018-06-30T19:22:13.507Z,64.70
2018-06-30T19:24:41.797Z,65.40
2018-06-30T19:27:10.148Z,66.50
2018-06-30T19:29:38.476Z,67.00
2018-06-30T19:32:06.823Z,68.10
2018-06-30T19:34:35.133Z,68.60
2018-06-30T19:37:03.616Z,69.50
2018-06-30T19:39:31.908Z,70.30
2018-06-30T19:42:00.215Z,70.90
2018-06-30T19:44:28.504Z,71.90
2018-06-30T19:46:56.819Z,72.30
2018-06-30T19:49:25.093Z,73.10
2018-06-30T19:51:53.376Z,73.70
2018-06-30T19:54:21.715Z,75.20
2018-06-30T19:59:18.078Z,76.60
2018-06-30T20:01:46.478Z,77.80
2018-06-30T20:04:14.826Z,78.60
2018-06-30T20:06:43.114Z,78.50
2018-06-30T20:09:11.413Z,79.20
2018-06-30T20:11:39.820Z,79.60
2018-06-30T20:14:08.141Z,79.70
2018-06-30T20:16:36.448Z,80.80
2018-06-30T20:19:04.908Z,81.40
2018-06-30T20:21:33.202Z,82.30
2018-06-30T20:24:01.516Z,81.50
2018-06-30T20:26:30.005Z,82.10
2018-06-30T20:31:26.472Z,82.20
2018-06-30T20:36:22.753Z,81.60
2018-06-30T20:38:51.516Z,82.40
2018-06-30T20:46:16.011Z,83.00
2018-06-30T20:48:44.288Z,83.10
2018-06-30T20:51:12.600Z,83.20
2018-06-30T20:53:40.954Z,83.80
2018-06-30T20:56:09.274Z,83.80
2018-06-30T20:58:37.586Z,85.10
2018-06-30T21:01:06.025Z,85.00
2018-06-30T21:03:34.385Z,85.70
2018-06-30T21:06:02.677Z,85.50
2018-06-30T21:08:31.010Z,85.00
2018-06-30T21:10:59.340Z,85.40
2018-06-30T21:13:27.616Z,85.40
2018-06-30T21:15:55.951Z,85.30
2018-06-30T21:18:24.250Z,85.90
2018-06-30T21:20:52.622Z,85.70
2018-06-30T21:23:20.967Z,86.00
2018-06-30T21:25:49.495Z,86.00
2018-06-30T21:30:45.816Z,86.70
2018-06-30T21:33:14.105Z,86.50
2018-06-30T21:35:42.416Z,86.50
2018-06-30T21:38:10.892Z,86.70
2018-06-30T21:40:39.178Z,86.40
2018-06-30T21:43:07.478Z,87.20
2018-06-30T21:48:03.863Z,86.40
2018-06-30T21:50:32.147Z,86.20
2018-06-30T21:53:00.425Z,85.90
2018-06-30T21:55:28.728Z,85.50
2018-06-30T21:57:57.040Z,84.50
2018-06-30T22:00:52.293Z,85.20
2018-06-30T22:03:25.325Z,84.60
2018-06-30T22:05:54.944Z,83.90
2018-06-30T22:08:23.401Z,83.90
2018-06-30T22:10:51.771Z,82.90
2018-06-30T22:13:20.400Z,82.70
2018-06-30T22:15:49.432Z,82.10
2018-06-30T22:18:17.819Z,81.70
2018-06-30T22:20:46.076Z,82.10
2018-06-30T22:23:14.449Z,81.30
2018-06-30T22:25:42.731Z,80.80
2018-06-30T22:28:11.036Z,80.30
2018-06-30T22:30:39.350Z,79.00
2018-06-30T22:33:07.672Z,79.30
2018-06-30T22:35:35.973Z,77.80
2018-06-30T22:38:04.686Z,78.20
2018-06-30T22:40:32.965Z,78.00
2018-06-30T22:43:01.280Z,78.10
2018-06-30T22:45:29.583Z,78.00
2018-06-30T22:47:57.974Z,76.90
2018-06-30T22:50:26.279Z,75.10
2018-06-30T22:52:54.597Z,76.20
2018-06-30T22:55:22.873Z,75.10
2018-06-30T23:00:19.525Z,73.20
2018-06-30T23:02:47.793Z,73.10
2018-06-30T23:05:16.098Z,70.60
2018-06-30T23:07:44.425Z,70.50
2018-06-30T23:10:14.891Z,69.80
2018-06-30T23:12:43.983Z,69.20
2018-06-30T23:15:12.411Z,68.50
2018-06-30T23:17:40.765Z,66.40
2018-06-30T23:20:09.427Z,66.00
2018-06-30T23:23:11.502Z,65.90
2018-06-30T23:25:40.599Z,65.00
2018-06-30T23:28:09.103Z,64.80
2018-06-30T23:30:37.452Z,64.90
2018-06-30T23:35:34.233Z,63.80
2018-06-30T23:38:03.133Z,63.30
2018-06-30T23:40:31.426Z,62.50
2018-06-30T23:42:59.846Z,62.30
2018-06-30T23:45:28.157Z,62.90
2018-06-30T23:47:56.547Z,61.70
2018-06-30T23:50:24.849Z,61.30
2018-06-30T23:52:53.160Z,61.20
2018-06-30T23:57:49.471Z,61.70
